Cash's Hourly Summary for Tuesday, March 14, 2017
Hour Temp
(f)
RH
(%)
Solar Rad.
(MJ/m2)
Rainfall
(in)
Wind
(mph)
3/14/2017 12:00 AM 43 46 0 0 5.2
3/14/2017 1:00 AM 41 49 0 0 3.75
3/14/2017 2:00 AM 39 54 0 0 1.53
3/14/2017 3:00 AM 35 67 0 0 0.2
3/14/2017 4:00 AM 34 73 0 0 0
3/14/2017 5:00 AM 33 77 0 0 1.29
3/14/2017 6:00 AM 33 79 0 0 1.36
3/14/2017 7:00 AM 32 81 0 0 0.63
3/14/2017 8:00 AM 33 77 0.03 0 0.96
3/14/2017 9:00 AM 37 61 0.5 0 2.43
3/14/2017 10:00 AM 42 50 1.21 0 3.95
3/14/2017 11:00 AM 45 43 1.91 0 3.27
3/14/2017 12:00 PM 48 39 2.5 0 2.49
3/14/2017 1:00 PM 51 38 2.86 0 3.24
3/14/2017 2:00 PM 54 34 3.03 0 2.51
3/14/2017 3:00 PM 56 32 2.9 0 2.2
3/14/2017 4:00 PM 58 32 2.62 0 2.88
3/14/2017 5:00 PM 59 31 1.8 0 3.47
3/14/2017 6:00 PM 59 32 1.3 0 2.76
3/14/2017 7:00 PM 58 33 0.58 0 2.33
3/14/2017 8:00 PM 54 38 0.03 0 0.16
3/14/2017 9:00 PM 49 55 0 0 0.82
3/14/2017 10:00 PM 49 55 0 0 2.21
3/14/2017 11:00 PM 49 53 0 0 2.89
Data Summary 45 51 21.27 0.00 2.19